KGNT/GNT METAR and TAF weather

Enter ICAO airport designator
Station Type Date Time Source
KGNT METAR 2021/03/03 01:15 UTC NOAA

KGNT 030115Z AUTO 17007KT 10SM CLR 08/M20 A3007 RMK AO2 T00791197


Station Type Date Time Source
KGNT Decoded METAR 2021/03/03 01:15 UTC NOAA

GRANTS-MILAN MUNICIPAL AIRPORT , NM, United States (KGNT) 35-10N 107-54W 1987M
Mar 02, 2021 - 08:15 PM EST / 2021.03.03 0115 UTC
Wind: from the S (170 degrees) at 8 MPH (7 KT):0
Visibility: 10 mile(s):0
Sky conditions: clear
Temperature: 46.2 F (7.9 C)
Dew Point: -3.5 F (-19.7 C)
Relative Humidity: 12%
Pressure (altimeter): 30.07 in. Hg (1018 hPa)
ob: KGNT 030115Z AUTO 17007KT 10SM CLR 08/M20 A3007 RMK AO2 T00791197
cycle: 1

Station Type Date Time Source
KGNT TAF UTC NOAA

Error!

Example: see airport list